Time;durP1;ratioP1;P1;durP2;ratioP2;P2;SDS_P1;SDS_P2;PMS_P1;PMS_P2;Temp;Humidity;BMP_temperature;BMP_pressure;BME280_temperature;BME280_humidity;BME280_pressure;Samples;Min_cycle;Max_cycle;Signal;HPM_P1;HPM_P2
2023/01/16 00:02:00;;;;;;;12.97;9.23;;;3.50;99.90;;;;;;5070790;28;20375;-79
2023/01/16 00:04:27;;;;;;;14.63;8.73;;;3.50;99.90;;;;;;5069489;28;20059;-76
2023/01/16 00:06:53;;;;;;;12.73;7.77;;;3.50;99.90;;;;;;5070237;28;20052;-77
2023/01/16 00:09:20;;;;;;;15.73;8.13;;;3.70;99.90;;;;;;5069911;28;20322;-77
2023/01/16 00:11:46;;;;;;;9.67;7.57;;;3.50;99.90;;;;;;5069629;28;20090;-80
2023/01/16 00:14:12;;;;;;;10.07;6.63;;;3.50;99.90;;;;;;5070683;28;20040;-76
2023/01/16 00:16:37;;;;;;;14.03;7.50;;;3.50;99.90;;;;;;5070241;28;20123;-77
2023/01/16 00:19:03;;;;;;;10.87;6.93;;;3.60;99.90;;;;;;5070614;28;20351;-79
2023/01/16 00:21:29;;;;;;;11.50;7.03;;;3.60;99.90;;;;;;5070013;28;20371;-77
2023/01/16 00:23:58;;;;;;;10.73;7.03;;;3.70;99.90;;;;;;5067906;28;20366;-78
2023/01/16 00:26:25;;;;;;;12.43;7.33;;;3.70;99.90;;;;;;5068560;28;20086;-76
2023/01/16 00:28:51;;;;;;;10.37;7.33;;;3.70;99.90;;;;;;5070823;28;20042;-78
2023/01/16 00:31:17;;;;;;;12.63;7.93;;;3.70;99.90;;;;;;5069860;28;20047;-77
2023/01/16 00:33:43;;;;;;;10.77;7.87;;;3.70;99.90;;;;;;5070412;28;20066;-76
2023/01/16 00:36:12;;;;;;;12.67;7.97;;;3.80;99.90;;;;;;5067898;28;20486;-77
2023/01/16 00:38:38;;;;;;;12.07;8.37;;;3.80;99.90;;;;;;5068382;28;20036;-77
2023/01/16 00:41:04;;;;;;;17.73;10.00;;;3.80;99.90;;;;;;5069945;28;20102;-76
2023/01/16 00:43:30;;;;;;;13.73;8.47;;;3.80;99.90;;;;;;5070497;28;20041;-76
2023/01/16 00:45:56;;;;;;;14.07;10.40;;;3.80;99.90;;;;;;5069695;28;20044;-76
2023/01/16 00:48:22;;;;;;;14.27;9.97;;;3.80;99.90;;;;;;5085347;28;20447;-76
2023/01/16 00:50:49;;;;;;;16.73;10.53;;;3.90;99.90;;;;;;5069256;28;20382;-78
2023/01/16 00:53:15;;;;;;;14.70;10.20;;;3.90;99.90;;;;;;5069532;28;20409;-77
2023/01/16 00:55:41;;;;;;;14.47;9.50;;;3.80;99.90;;;;;;5068912;28;20420;-76
2023/01/16 00:58:08;;;;;;;14.30;10.17;;;3.80;99.90;;;;;;5067796;28;20063;-77
2023/01/16 01:00:34;;;;;;;11.23;8.97;;;4.00;99.90;;;;;;5070042;28;20040;-76
2023/01/16 01:03:01;;;;;;;19.77;10.83;;;3.80;99.90;;;;;;5067034;28;20049;-77
2023/01/16 01:05:27;;;;;;;16.73;11.37;;;3.80;99.90;;;;;;5069685;28;20060;-77
2023/01/16 01:07:52;;;;;;;12.23;9.73;;;3.80;99.90;;;;;;5069448;28;20108;-77
2023/01/16 01:10:18;;;;;;;14.57;9.20;;;4.00;99.90;;;;;;5068847;28;20048;-76
2023/01/16 01:12:44;;;;;;;14.73;8.17;;;3.80;99.90;;;;;;5051373;28;20496;-76
2023/01/16 01:15:10;;;;;;;15.50;8.67;;;3.70;99.90;;;;;;5068807;28;20048;-76
2023/01/16 01:17:36;;;;;;;11.67;10.40;;;3.60;99.90;;;;;;5067410;28;20044;-77
2023/01/16 01:20:02;;;;;;;16.67;9.67;;;3.60;99.90;;;;;;5069289;28;20066;-77
2023/01/16 01:22:28;;;;;;;12.17;8.00;;;3.60;99.90;;;;;;5067326;28;20123;-77
2023/01/16 01:24:54;;;;;;;17.43;6.77;;;3.50;99.90;;;;;;5068724;28;20443;-76
2023/01/16 01:27:19;;;;;;;13.70;7.27;;;3.60;99.90;;;;;;5068266;28;20051;-77
2023/01/16 01:29:47;;;;;;;13.80;8.20;;;3.50;99.90;;;;;;5068847;28;20556;-77
2023/01/16 01:32:13;;;;;;;9.23;6.03;;;3.50;99.90;;;;;;5068037;28;20456;-77
2023/01/16 01:34:39;;;;;;;10.23;6.47;;;3.50;99.90;;;;;;5068778;28;20076;-77
2023/01/16 01:37:07;;;;;;;13.70;6.43;;;3.50;99.90;;;;;;5068717;28;20089;-77
2023/01/16 01:39:33;;;;;;;14.63;6.80;;;3.40;99.90;;;;;;5069286;28;20095;-76
2023/01/16 01:44:55;;;;;;;15.27;8.73;;;3.40;99.90;;;;;;5067658;28;20051;-76
2023/01/16 01:47:31;;;;;;;12.90;6.80;;;3.30;99.90;;;;;;5068767;28;20337;-76
2023/01/16 01:49:59;;;;;;;14.23;6.97;;;3.80;99.90;;;;;;5068079;28;20514;-76
2023/01/16 01:52:28;;;;;;;9.77;6.00;;;3.30;99.90;;;;;;5048882;28;20120;-76
2023/01/16 01:54:59;;;;;;;11.23;6.27;;;3.30;99.90;;;;;;5068227;28;20040;-76
2023/01/16 01:57:39;;;;;;;14.18;6.10;;;3.30;99.90;;;;;;5067415;28;20044;-77
2023/01/16 02:00:11;;;;;;;9.30;6.17;;;3.30;99.90;;;;;;5067474;28;20080;-76
2023/01/16 02:02:42;;;;;;;14.37;6.00;;;3.30;99.90;;;;;;5066094;28;20052;-76
2023/01/16 02:05:10;;;;;;;15.15;6.22;;;3.40;99.90;;;;;;5083535;28;20531;-76
2023/01/16 02:07:36;;;;;;;13.07;5.73;;;3.30;99.90;;;;;;5068080;28;20601;-77
2023/01/16 02:10:36;;;;;;;16.00;6.37;;;3.30;99.90;;;;;;5068543;28;20500;-76
2023/01/16 02:13:02;;;;;;;11.83;5.57;;;3.30;99.90;;;;;;5066017;28;20131;-76
2023/01/16 02:15:28;;;;;;;12.63;6.10;;;3.30;99.90;;;;;;5067056;28;20120;-76
2023/01/16 02:20:48;;;;;;;14.80;5.73;;;3.40;99.90;;;;;;5068297;28;20115;-76
2023/01/16 02:23:26;;;;;;;12.03;5.80;;;3.30;99.90;;;;;;5068918;28;20044;-77
2023/01/16 02:26:15;;;;;;;15.80;5.77;;;3.30;99.90;;;;;;5065914;28;20466;-78
2023/01/16 02:28:53;;;;;;;15.60;6.30;;;3.20;99.90;;;;;;5066887;28;20449;-77
2023/01/16 02:31:33;;;;;;;17.37;6.03;;;3.20;99.90;;;;;;5067728;28;20049;-76
2023/01/16 02:34:32;;;;;;;13.73;7.13;;;3.20;99.90;;;;;;5066538;28;20041;-77
2023/01/16 02:37:28;;;;;;;13.53;5.63;;;3.20;99.90;;;;;;5064578;28;20052;-76
2023/01/16 02:40:07;;;;;;;11.77;5.73;;;3.20;99.90;;;;;;5066243;28;20064;-76
2023/01/16 02:42:55;;;;;;;11.93;5.53;;;3.20;99.90;;;;;;5067354;28;20059;-76
2023/01/16 02:45:29;;;;;;;13.43;6.10;;;3.20;99.90;;;;;;5066400;28;20450;-76
2023/01/16 02:48:28;;;;;;;15.70;6.57;;;3.20;99.90;;;;;;5065941;28;20050;-76
2023/01/16 02:51:03;;;;;;;12.37;5.00;;;3.30;99.90;;;;;;5064105;28;20040;-77
2023/01/16 02:54:10;;;;;;;11.40;5.80;;;3.20;99.90;;;;;;5078427;28;20041;-76
2023/01/16 02:56:51;;;;;;;13.87;5.97;;;3.30;99.90;;;;;;5048308;28;20052;-79
2023/01/16 02:59:18;;;;;;;12.55;6.40;;;3.30;99.90;;;;;;5068543;28;20119;-76
2023/01/16 03:01:49;;;;;;;16.13;5.93;;;3.30;99.90;;;;;;5071701;28;20244;-76
2023/01/16 03:04:40;;;;;;;12.70;6.25;;;3.40;99.90;;;;;;5070282;28;20036;-77
2023/01/16 03:07:14;;;;;;;15.73;5.10;;;3.40;99.90;;;;;;5071174;28;20056;-76
2023/01/16 03:09:46;;;;;;;16.97;6.83;;;3.40;99.90;;;;;;5068471;28;20048;-77
2023/01/16 03:12:24;;;;;;;14.03;6.77;;;3.40;99.90;;;;;;5069034;28;20040;-76
2023/01/16 03:15:26;;;;;;;12.43;6.20;;;3.40;99.90;;;;;;5070195;28;20115;-76
2023/01/16 03:18:09;;;;;;;12.60;6.20;;;3.50;99.90;;;;;;5064178;28;20491;-76
2023/01/16 03:21:03;;;;;;;12.20;5.83;;;3.40;99.90;;;;;;5070949;28;20036;-77
2023/01/16 03:23:45;;;;;;;10.57;5.97;;;3.40;99.90;;;;;;5069544;28;20075;-76
2023/01/16 03:26:33;;;;;;;10.97;5.77;;;3.40;99.90;;;;;;5070584;28;20043;-76
2023/01/16 03:29:29;;;;;;;12.27;6.73;;;3.40;99.90;;;;;;5071161;28;20402;-77
2023/01/16 03:32:07;;;;;;;9.03;6.07;;;3.40;99.90;;;;;;5070127;28;20087;-76
2023/01/16 03:34:33;;;;;;;13.63;6.97;;;3.40;99.90;;;;;;5069883;28;20055;-76
2023/01/16 03:37:17;;;;;;;15.50;7.30;;;3.50;99.90;;;;;;5070325;28;20386;-76
2023/01/16 03:39:47;;;;;;;12.83;6.50;;;3.60;99.90;;;;;;5071350;28;20413;-78
2023/01/16 03:42:23;;;;;;;13.40;6.77;;;3.50;99.90;;;;;;5067013;28;20052;-77
2023/01/16 03:44:57;;;;;;;13.10;6.67;;;3.50;99.90;;;;;;5071265;28;20052;-76
2023/01/16 03:47:29;;;;;;;13.50;6.60;;;3.50;99.90;;;;;;5070762;28;20041;-77
2023/01/16 03:50:00;;;;;;;16.43;5.87;;;3.50;99.90;;;;;;5071281;28;20032;-76
2023/01/16 03:52:35;;;;;;;13.48;5.30;;;3.60;99.90;;;;;;5070940;28;20049;-76
2023/01/16 03:55:12;;;;;;;13.07;5.87;;;3.50;99.90;;;;;;5070574;28;20123;-77
2023/01/16 03:57:42;;;;;;;13.40;7.07;;;3.60;99.90;;;;;;5070664;28;20525;-76
2023/01/16 04:00:08;;;;;;;15.63;9.70;;;3.50;99.90;;;;;;5070730;28;20052;-76
2023/01/16 04:02:40;;;;;;;14.47;7.23;;;3.50;99.90;;;;;;5070143;28;20106;-76
2023/01/16 04:05:15;;;;;;;14.63;7.10;;;3.60;99.90;;;;;;5070605;28;20083;-76
2023/01/16 04:08:00;;;;;;;12.60;7.30;;;3.50;99.90;;;;;;5069489;28;20066;-77
2023/01/16 04:10:35;;;;;;;17.30;7.20;;;3.60;99.90;;;;;;5068047;28;20083;-76
2023/01/16 04:13:10;;;;;;;10.27;6.67;;;3.60;99.90;;;;;;5070580;28;20048;-78
2023/01/16 04:15:44;;;;;;;14.07;7.20;;;3.50;99.90;;;;;;5070206;28;20098;-76
2023/01/16 04:18:09;;;;;;;15.30;8.17;;;3.50;99.90;;;;;;5069513;28;20525;-77
2023/01/16 04:20:37;;;;;;;15.63;7.73;;;3.50;99.90;;;;;;5070711;28;20080;-76
2023/01/16 04:23:02;;;;;;;13.23;8.53;;;3.50;99.90;;;;;;5068836;28;20047;-76
2023/01/16 04:25:28;;;;;;;15.00;8.07;;;3.50;99.90;;;;;;5070116;28;20037;-76
2023/01/16 04:27:54;;;;;;;16.13;8.70;;;3.60;99.90;;;;;;5070201;28;20071;-76
2023/01/16 04:30:20;;;;;;;13.43;7.63;;;3.50;99.90;;;;;;5070189;28;20466;-76
2023/01/16 04:32:45;;;;;;;21.23;8.93;;;3.50;99.90;;;;;;5069949;28;20135;-77
2023/01/16 04:35:11;;;;;;;17.43;9.40;;;3.60;99.90;;;;;;5070276;28;20043;-76
2023/01/16 04:37:37;;;;;;;14.53;8.37;;;3.50;99.90;;;;;;5069890;28;20051;-76
2023/01/16 04:40:04;;;;;;;17.13;9.13;;;3.50;99.90;;;;;;5070402;28;20040;-76
2023/01/16 04:42:29;;;;;;;20.53;11.47;;;3.50;99.90;;;;;;5068791;28;20040;-77
2023/01/16 04:44:55;;;;;;;18.57;10.50;;;3.50;99.90;;;;;;5051895;28;20052;-76
2023/01/16 04:47:21;;;;;;;17.83;11.40;;;3.50;99.90;;;;;;5069509;28;20045;-76
2023/01/16 04:49:46;;;;;;;18.37;10.70;;;3.50;99.90;;;;;;5070022;28;20070;-79
2023/01/16 04:52:13;;;;;;;20.43;11.17;;;3.50;99.90;;;;;;5068967;28;20458;-78
2023/01/16 04:54:39;;;;;;;18.67;11.63;;;3.50;99.90;;;;;;5070034;28;20847;-77
2023/01/16 04:57:05;;;;;;;19.57;10.40;;;3.60;99.90;;;;;;5069290;28;20048;-76
2023/01/16 04:59:30;;;;;;;19.83;11.30;;;3.50;99.90;;;;;;5069501;28;20553;-76
2023/01/16 05:01:56;;;;;;;19.30;12.33;;;3.60;99.90;;;;;;5069029;28;20149;-76
2023/01/16 05:04:22;;;;;;;17.93;11.60;;;3.50;99.90;;;;;;5069581;28;20411;-78
2023/01/16 05:06:48;;;;;;;17.27;10.60;;;3.50;99.90;;;;;;5068920;28;20070;-76
2023/01/16 05:09:13;;;;;;;26.60;17.20;;;3.50;99.90;;;;;;5068874;28;20033;-76
2023/01/16 05:11:39;;;;;;;39.33;24.07;;;3.50;99.90;;;;;;5051371;28;20076;-76
2023/01/16 05:14:07;;;;;;;31.40;19.53;;;3.50;99.90;;;;;;5069124;28;20045;-77
2023/01/16 05:16:38;;;;;;;23.33;14.13;;;3.40;99.90;;;;;;5052085;28;20115;-76
2023/01/16 05:19:04;;;;;;;20.58;10.30;;;3.40;99.90;;;;;;5067767;28;20090;-76
2023/01/16 05:21:30;;;;;;;24.73;11.70;;;3.30;99.90;;;;;;5067985;28;20048;-78
2023/01/16 05:23:56;;;;;;;23.77;12.43;;;3.20;99.90;;;;;;5066627;28;20044;-76
2023/01/16 05:26:21;;;;;;;22.43;11.87;;;3.10;99.90;;;;;;5069238;28;20497;-76
2023/01/16 05:28:47;;;;;;;22.97;12.90;;;3.10;99.90;;;;;;5069124;28;20486;-76
2023/01/16 05:31:13;;;;;;;24.83;11.87;;;3.00;99.90;;;;;;5068665;28;20040;-76
2023/01/16 05:33:39;;;;;;;23.20;11.53;;;3.00;99.90;;;;;;5068787;28;20044;-76
2023/01/16 05:36:05;;;;;;;26.50;11.63;;;2.90;99.90;;;;;;5067201;28;20049;-76
2023/01/16 05:38:30;;;;;;;23.07;11.87;;;2.80;99.90;;;;;;5052173;28;20188;-77
2023/01/16 05:40:56;;;;;;;21.07;11.90;;;2.90;99.90;;;;;;5068876;28;20513;-76
2023/01/16 05:43:22;;;;;;;23.87;11.17;;;2.70;99.90;;;;;;5069119;28;20097;-76
2023/01/16 05:45:47;;;;;;;22.13;12.20;;;2.60;99.90;;;;;;5050587;28;20051;-79
2023/01/16 05:48:13;;;;;;;20.30;11.70;;;2.60;99.90;;;;;;5067497;28;20048;-76
2023/01/16 05:50:39;;;;;;;22.67;11.80;;;2.60;99.90;;;;;;5069086;28;20040;-77
2023/01/16 05:53:05;;;;;;;20.13;11.87;;;2.40;99.90;;;;;;5066458;28;20048;-77
2023/01/16 05:55:30;;;;;;;19.20;10.47;;;2.40;99.90;;;;;;5047612;28;20059;-76
2023/01/16 05:57:56;;;;;;;24.43;12.53;;;2.30;99.90;;;;;;5064344;28;20473;-78
2023/01/16 06:00:22;;;;;;;24.47;11.30;;;2.20;99.90;;;;;;5081365;28;20043;-76
2023/01/16 06:02:49;;;;;;;20.97;11.70;;;2.10;99.90;;;;;;5066256;28;20075;-76
2023/01/16 06:05:15;;;;;;;26.77;14.30;;;2.10;99.90;;;;;;5055779;28;20632;-77
2023/01/16 06:07:41;;;;;;;29.13;14.70;;;2.00;99.90;;;;;;5052912;28;20055;-77
2023/01/16 06:10:11;;;;;;;30.57;14.33;;;2.10;99.90;;;;;;5064049;28;20123;-77
2023/01/16 06:12:37;;;;;;;25.93;15.60;;;2.20;99.90;;;;;;5064937;28;20048;-76
2023/01/16 06:15:03;;;;;;;30.77;15.87;;;2.20;99.90;;;;;;5065324;28;20121;-76
2023/01/16 06:17:29;;;;;;;28.47;15.70;;;2.30;99.90;;;;;;5068089;28;20049;-76
2023/01/16 06:19:56;;;;;;;30.03;16.73;;;2.40;99.90;;;;;;5064138;28;20040;-77
2023/01/16 06:22:22;;;;;;;31.47;16.33;;;2.30;99.90;;;;;;5064942;28;20040;-76
2023/01/16 06:24:47;;;;;;;30.97;15.70;;;2.30;99.90;;;;;;5065114;28;20492;-76
2023/01/16 06:27:13;;;;;;;32.50;15.90;;;2.30;99.90;;;;;;5065239;28;20432;-77
2023/01/16 06:29:39;;;;;;;30.87;15.53;;;2.30;99.90;;;;;;5064482;28;20131;-77
2023/01/16 06:32:05;;;;;;;28.53;15.97;;;2.20;99.90;;;;;;5059608;28;20052;-77
2023/01/16 06:34:31;;;;;;;32.97;15.13;;;2.20;99.90;;;;;;5061161;28;20101;-76
2023/01/16 06:36:56;;;;;;;31.47;15.67;;;2.20;99.90;;;;;;5062946;28;20049;-77
2023/01/16 06:39:22;;;;;;;32.60;16.77;;;2.30;99.90;;;;;;5065355;28;20037;-79
2023/01/16 06:41:47;;;;;;;31.03;16.50;;;2.20;99.90;;;;;;5066559;28;20044;-77
2023/01/16 06:44:13;;;;;;;36.27;17.87;;;2.30;99.90;;;;;;5049690;28;20044;-76
2023/01/16 06:46:39;;;;;;;32.87;17.77;;;2.50;99.90;;;;;;5067948;28;20032;-76
2023/01/16 06:49:04;;;;;;;36.90;19.23;;;2.40;99.90;;;;;;5068492;28;20036;-76
2023/01/16 06:51:30;;;;;;;34.83;19.13;;;2.50;99.90;;;;;;5063116;28;20123;-77
2023/01/16 06:53:56;;;;;;;35.43;20.33;;;2.50;99.90;;;;;;5063298;28;20522;-76
2023/01/16 06:56:21;;;;;;;32.90;18.60;;;2.50;99.90;;;;;;5064569;28;20463;-76
2023/01/16 06:58:47;;;;;;;35.03;19.03;;;2.50;99.90;;;;;;5065072;28;20056;-79
2023/01/16 07:01:13;;;;;;;34.83;19.43;;;2.50;99.90;;;;;;5064804;28;20110;-76
2023/01/16 07:03:39;;;;;;;30.33;17.87;;;2.40;99.90;;;;;;5067738;28;20044;-76
2023/01/16 07:06:05;;;;;;;35.03;18.20;;;2.40;99.90;;;;;;5066807;28;20505;-76
2023/01/16 07:08:30;;;;;;;32.77;17.40;;;2.40;99.90;;;;;;5067082;28;20269;-76
2023/01/16 07:11:00;;;;;;;30.10;16.73;;;2.40;99.90;;;;;;5066917;28;20036;-77
2023/01/16 07:13:28;;;;;;;34.30;17.27;;;2.30;99.90;;;;;;5067905;28;20056;-76
2023/01/16 07:24:12;;;;;;;31.73;17.47;;;2.20;99.90;;;;;;5066683;28;20078;-76
2023/01/16 07:26:42;;;;;;;31.80;17.50;;;2.30;99.90;;;;;;5067174;28;20161;-76
2023/01/16 07:29:09;;;;;;;34.53;17.90;;;2.10;99.90;;;;;;5067748;28;20072;-76
2023/01/16 07:31:36;;;;;;;35.60;18.47;;;2.20;99.90;;;;;;5067435;28;20044;-76
2023/01/16 07:34:01;;;;;;;30.73;16.37;;;2.20;99.90;;;;;;5067663;28;20072;-76
2023/01/16 07:36:27;;;;;;;32.23;17.73;;;2.20;99.90;;;;;;5067261;28;20056;-77
2023/01/16 07:38:55;;;;;;;33.33;17.10;;;2.20;99.90;;;;;;5063028;28;20045;-76
2023/01/16 07:41:21;;;;;;;27.63;15.87;;;2.20;99.90;;;;;;5063601;28;20045;-76
2023/01/16 07:43:47;;;;;;;33.43;16.57;;;2.20;99.90;;;;;;5066395;28;20044;-79
2023/01/16 07:46:12;;;;;;;32.57;14.80;;;2.20;99.90;;;;;;5067602;28;20051;-76
2023/01/16 07:48:38;;;;;;;30.10;15.90;;;2.30;99.90;;;;;;5066509;28;20094;-77
2023/01/16 07:51:04;;;;;;;31.07;15.67;;;2.30;99.90;;;;;;5067503;28;20044;-77
2023/01/16 07:53:31;;;;;;;32.27;15.30;;;2.30;99.90;;;;;;5069760;28;20101;-77
2023/01/16 07:56:01;;;;;;;29.00;14.10;;;2.30;99.90;;;;;;5070482;28;20068;-76
2023/01/16 07:58:28;;;;;;;28.63;14.60;;;2.30;99.90;;;;;;5060665;28;20052;-77
2023/01/16 08:00:55;;;;;;;30.07;14.47;;;2.30;99.90;;;;;;5070418;28;20036;-76
2023/01/16 08:03:22;;;;;;;20.87;12.83;;;2.40;99.90;;;;;;5069692;28;20052;-76
2023/01/16 08:05:50;;;;;;;26.13;13.13;;;2.30;99.90;;;;;;5068264;28;20048;-79
2023/01/16 08:08:16;;;;;;;26.00;14.07;;;2.50;99.90;;;;;;5067293;28;20052;-76
2023/01/16 08:10:42;;;;;;;28.00;12.83;;;2.40;99.90;;;;;;5065603;28;20710;-79
2023/01/16 08:13:08;;;;;;;25.87;12.83;;;2.60;99.90;;;;;;5056744;28;20036;-77
2023/01/16 08:15:34;;;;;;;24.53;13.23;;;2.50;99.90;;;;;;5067890;28;20382;-76
2023/01/16 08:17:59;;;;;;;21.30;12.17;;;2.50;99.90;;;;;;5068274;28;20157;-76
2023/01/16 08:20:25;;;;;;;26.20;13.00;;;2.60;99.90;;;;;;5067093;28;20036;-76
2023/01/16 08:22:51;;;;;;;23.23;11.97;;;2.50;99.90;;;;;;5065195;28;20986;-76
2023/01/16 08:25:19;;;;;;;23.03;12.00;;;2.60;99.90;;;;;;5065385;28;20060;-79
2023/01/16 08:27:45;;;;;;;26.43;12.67;;;2.60;99.90;;;;;;5066808;28;20433;-76
2023/01/16 08:30:12;;;;;;;29.00;13.57;;;2.80;99.90;;;;;;5069490;28;20438;-76
2023/01/16 08:32:38;;;;;;;27.07;14.97;;;2.70;99.90;;;;;;5068309;28;20474;-78
2023/01/16 08:35:04;;;;;;;24.70;13.77;;;2.70;99.90;;;;;;5068621;28;20152;-76
2023/01/16 08:37:31;;;;;;;30.97;13.60;;;2.80;99.90;;;;;;5068940;28;20375;-76
2023/01/16 08:39:57;;;;;;;24.80;13.70;;;2.90;99.90;;;;;;5068149;28;20040;-76
2023/01/16 08:53:30;;;;;;;25.47;13.20;;;3.10;99.90;;;;;;5068219;28;20264;-76
2023/01/16 08:55:55;;;;;;;27.67;13.67;;;3.10;99.90;;;;;;5067920;28;20044;-77
2023/01/16 08:58:21;;;;;;;22.10;11.80;;;3.00;99.90;;;;;;5067632;28;20093;-77
2023/01/16 09:00:48;;;;;;;22.83;12.57;;;3.00;99.90;;;;;;5068559;28;20036;-76
2023/01/16 09:03:17;;;;;;;22.17;11.70;;;3.00;99.90;;;;;;5066641;28;20078;-80
2023/01/16 09:05:43;;;;;;;22.97;12.30;;;3.10;99.90;;;;;;5068362;28;20055;-77
2023/01/16 09:08:09;;;;;;;22.27;11.97;;;3.10;99.90;;;;;;5068025;28;20056;-79
2023/01/16 09:10:35;;;;;;;21.00;13.27;;;3.10;99.90;;;;;;5067762;28;20045;-76
2023/01/16 09:15:45;;;;;;;21.17;13.60;;;3.20;99.90;;;;;;5065409;28;20082;-76
2023/01/16 09:18:11;;;;;;;22.47;12.67;;;3.20;99.90;;;;;;5068378;28;20072;-80
2023/01/16 09:20:36;;;;;;;20.23;12.20;;;3.20;99.90;;;;;;5066802;28;20084;-80
2023/01/16 09:23:03;;;;;;;25.53;13.20;;;3.20;99.90;;;;;;5068225;28;20060;-77
2023/01/16 09:25:31;;;;;;;22.63;12.23;;;3.20;99.90;;;;;;5066243;28;20113;-76
2023/01/16 09:27:57;;;;;;;22.13;12.50;;;3.30;99.90;;;;;;5068222;28;20123;-77
2023/01/16 09:30:22;;;;;;;20.40;13.03;;;3.30;99.90;;;;;;5068333;28;20455;-76
2023/01/16 09:32:48;;;;;;;23.27;11.93;;;3.30;99.90;;;;;;5067413;28;20090;-76
2023/01/16 09:35:14;;;;;;;21.70;11.77;;;3.30;99.90;;;;;;5067263;28;20040;-80
2023/01/16 09:37:42;;;;;;;21.13;11.73;;;3.30;99.90;;;;;;5066341;28;20080;-75
2023/01/16 09:40:15;;;;;;;22.07;11.67;;;3.30;99.90;;;;;;5068813;28;20044;-77
2023/01/16 09:45:38;;;;;;;16.77;10.50;;;3.40;99.90;;;;;;5066174;28;20063;-76
2023/01/16 09:48:13;;;;;;;15.40;10.97;;;3.40;99.90;;;;;;5065737;28;20124;-80
2023/01/16 09:50:52;;;;;;;18.60;10.33;;;3.40;99.90;;;;;;5066735;28;20053;-77
2023/01/16 09:59:27;;;;;;;15.07;9.67;;;3.40;99.90;;;;;;5067522;28;19920;-79
2023/01/16 10:02:21;;;;;;;18.17;10.17;;;3.50;99.90;;;;;;5064589;28;20133;-78
2023/01/16 10:04:48;;;;;;;16.90;10.17;;;3.50;99.90;;;;;;5060965;28;20057;-77
2023/01/16 10:07:20;;;;;;;18.30;10.03;;;3.50;99.90;;;;;;5065675;28;20080;-80
2023/01/16 10:09:55;;;;;;;;;;;3.50;99.90;;;;;;5066456;28;20056;-77
2023/01/16 10:12:24;;;;;;;14.33;8.87;;;3.50;99.90;;;;;;5064996;28;19927;-78
2023/01/16 10:15:18;;;;;;;18.00;9.83;;;3.50;99.90;;;;;;5063469;28;20048;-76
2023/01/16 10:18:21;;;;;;;16.83;9.03;;;3.50;99.90;;;;;;5066664;28;20056;-77
2023/01/16 10:21:06;;;;;;;13.57;8.57;;;3.60;99.90;;;;;;5067595;28;20473;-77
2023/01/16 10:23:39;;;;;;;14.20;9.10;;;3.60;99.90;;;;;;5065622;28;20036;-76
2023/01/16 10:26:07;;;;;;;14.13;8.53;;;3.60;99.90;;;;;;5064052;28;20053;-77
2023/01/16 10:29:10;;;;;;;15.10;9.03;;;3.60;99.90;;;;;;5066325;28;20063;-79
2023/01/16 10:31:45;;;;;;;16.30;8.50;;;3.60;99.90;;;;;;5066639;28;20053;-76
2023/01/16 10:34:22;;;;;;;14.57;8.03;;;3.60;99.90;;;;;;5048188;28;20042;-76
2023/01/16 10:36:52;;;;;;;10.47;8.00;;;3.60;99.90;;;;;;5064318;28;20044;-76
2023/01/16 10:39:20;;;;;;;15.67;7.23;;;3.60;99.90;;;;;;5064209;28;20044;-77
2023/01/16 10:50:18;;;;;;;11.17;7.97;;;3.60;99.90;;;;;;5065199;28;20127;-79
2023/01/16 10:52:46;;;;;;;12.57;7.50;;;3.60;99.90;;;;;;5066489;28;20040;-77
2023/01/16 10:55:14;;;;;;;12.77;7.57;;;3.60;99.90;;;;;;5066525;28;20052;-77
2023/01/16 10:57:52;;;;;;;13.50;6.47;;;3.60;99.90;;;;;;5064734;28;20052;-77
2023/01/16 11:00:33;;;;;;;13.07;7.47;;;3.60;99.90;;;;;;5066620;28;20040;-77
2023/01/16 11:03:08;;;;;;;12.30;6.63;;;3.50;99.90;;;;;;5064607;28;20070;-77
2023/01/16 11:05:36;;;;;;;8.23;6.33;;;3.50;99.90;;;;;;5065752;28;20048;-77
2023/01/16 11:08:13;;;;;;;9.73;8.83;;;3.50;99.90;;;;;;5066612;28;20040;-77
2023/01/16 11:10:41;;;;;;;10.10;9.03;;;3.40;99.90;;;;;;5048632;28;20047;-78
2023/01/16 11:19:20;;;;;;;9.27;5.37;;;3.10;99.90;;;;;;5065342;28;20441;-78
2023/01/16 11:21:52;;;;;;;7.93;5.80;;;3.10;99.90;;;;;;5069201;28;20052;-78
2023/01/16 11:24:23;;;;;;;8.03;6.07;;;3.10;99.90;;;;;;5069193;28;20044;-76
2023/01/16 11:26:54;;;;;;;6.50;5.43;;;3.10;99.90;;;;;;5066114;28;20060;-77
2023/01/16 11:29:23;;;;;;;7.72;6.35;;;3.00;99.90;;;;;;5068156;28;20040;-77
2023/01/16 11:31:57;;;;;;;7.97;4.90;;;3.10;99.90;;;;;;5067520;28;20044;-77
2023/01/16 11:34:28;;;;;;;7.80;5.50;;;3.10;99.90;;;;;;5063298;28;20103;-81
2023/01/16 11:36:57;;;;;;;7.63;4.30;;;3.00;99.90;;;;;;5070227;28;20050;-76
2023/01/16 11:39:26;;;;;;;5.13;4.53;;;2.90;99.90;;;;;;5072130;28;20090;-76
2023/01/16 11:41:54;;;;;;;7.10;5.37;;;2.90;99.90;;;;;;5053716;28;20531;-78
2023/01/16 11:47:26;;;;;;;7.97;7.27;;;2.90;99.90;;;;;;5070012;28;20052;-77
2023/01/16 11:49:53;;;;;;;6.47;5.87;;;2.90;99.90;;;;;;5065603;28;20190;-77
2023/01/16 11:52:27;;;;;;;5.37;4.83;;;3.40;99.90;;;;;;5067515;28;20045;-76
2023/01/16 11:54:58;;;;;;;6.17;3.93;;;2.90;99.90;;;;;;5065144;28;20056;-76
2023/01/16 11:57:56;;;;;;;4.75;4.22;;;2.80;99.90;;;;;;5050953;28;20059;-78
2023/01/16 12:00:48;;;;;;;5.13;3.63;;;2.80;99.90;;;;;;5065310;28;20498;-76
2023/01/16 12:03:40;;;;;;;4.63;4.00;;;2.80;99.90;;;;;;5064201;28;20106;-77
2023/01/16 12:06:09;;;;;;;7.47;4.80;;;2.80;99.90;;;;;;5067915;28;20448;-76
2023/01/16 12:08:49;;;;;;;5.43;4.53;;;2.80;99.90;;;;;;5061245;28;20094;-77
2023/01/16 12:11:52;;;;;;;7.70;4.90;;;2.80;99.90;;;;;;5069348;28;20044;-78
2023/01/16 12:14:33;;;;;;;10.23;4.60;;;2.90;99.90;;;;;;5058669;28;20052;-76
2023/01/16 12:17:01;;;;;;;8.57;5.57;;;2.90;99.90;;;;;;5050591;28;20398;-78
2023/01/16 12:19:41;;;;;;;8.43;4.93;;;2.90;99.90;;;;;;5048818;28;20674;-77
2023/01/16 12:22:14;;;;;;;4.83;4.33;;;3.00;99.90;;;;;;5048782;28;20108;-79
2023/01/16 12:24:54;;;;;;;6.83;4.30;;;3.00;99.90;;;;;;5049701;28;20044;-76
2023/01/16 12:27:49;;;;;;;5.77;4.20;;;3.20;99.90;;;;;;5048326;28;20056;-81
2023/01/16 12:30:32;;;;;;;6.83;6.20;;;2.90;99.90;;;;;;5050378;28;20048;-77
2023/01/16 12:33:26;;;;;;;4.70;4.30;;;2.90;99.90;;;;;;5049104;28;20500;-81
2023/01/16 12:35:59;;;;;;;5.80;3.70;;;3.00;99.90;;;;;;5048898;28;20045;-80
2023/01/16 12:38:30;;;;;;;7.93;5.13;;;3.00;99.90;;;;;;5050210;28;20044;-77
2023/01/16 12:44:18;;;;;;;6.10;4.13;;;3.00;99.90;;;;;;5050141;28;20053;-76
2023/01/16 12:47:09;;;;;;;4.70;3.90;;;3.00;99.90;;;;;;5048139;28;20109;-81
2023/01/16 12:49:47;;;;;;;4.03;2.63;;;3.00;99.90;;;;;;5048194;28;20053;-77
2023/01/16 12:52:23;;;;;;;6.13;4.90;;;3.00;99.90;;;;;;5048630;28;20056;-77
2023/01/16 12:54:58;;;;;;;5.03;4.10;;;3.00;99.90;;;;;;5049429;28;20128;-76
2023/01/16 12:57:48;;;;;;;5.20;4.13;;;3.00;99.90;;;;;;5049415;28;20060;-77
2023/01/16 13:00:23;;;;;;;6.27;4.67;;;3.10;99.90;;;;;;5049708;28;20110;-78
2023/01/16 13:02:58;;;;;;;6.50;4.67;;;3.20;99.90;;;;;;5047434;28;20475;-79
2023/01/16 13:05:28;;;;;;;7.30;5.27;;;3.20;99.90;;;;;;5033211;28;20060;-81
2023/01/16 13:08:11;;;;;;;6.80;5.70;;;3.20;99.90;;;;;;5049401;28;20063;-78
2023/01/16 13:13:32;;;;;;;8.90;5.90;;;3.30;99.90;;;;;;5048699;28;20063;-77
2023/01/16 13:16:13;;;;;;;9.30;5.67;;;3.30;99.90;;;;;;5048796;28;20048;-77
2023/01/16 13:18:45;;;;;;;6.95;5.00;;;3.30;99.90;;;;;;5049255;28;20127;-75
2023/01/16 13:21:17;;;;;;;11.90;6.03;;;3.40;99.90;;;;;;5048031;28;20462;-78
2023/01/16 13:23:55;;;;;;;8.77;5.57;;;3.40;99.90;;;;;;5027179;28;20078;-78
2023/01/16 13:26:24;;;;;;;8.20;6.00;;;3.40;99.90;;;;;;5049595;28;20509;-76
2023/01/16 13:29:13;;;;;;;6.13;5.47;;;3.60;99.90;;;;;;5048183;28;20102;-76
2023/01/16 13:31:59;;;;;;;9.87;7.20;;;3.40;99.90;;;;;;5045201;28;20699;-75
2023/01/16 13:34:30;;;;;;;8.10;5.37;;;3.40;99.90;;;;;;5047840;28;20112;-81
2023/01/16 13:36:55;;;;;;;6.18;4.65;;;3.40;99.90;;;;;;5042920;28;20079;-82
2023/01/16 13:39:50;;;;;;;8.67;5.67;;;3.40;99.90;;;;;;5043910;28;20138;-82
2023/01/16 13:42:17;;;;;;;7.30;5.83;;;3.40;99.90;;;;;;5047310;28;20530;-79
2023/01/16 13:47:40;;;;;;;7.33;5.97;;;3.50;99.90;;;;;;5045586;28;20056;-77
2023/01/16 13:50:20;;;;;;;8.35;6.13;;;3.50;99.90;;;;;;5048570;28;20044;-77
2023/01/16 13:52:46;;;;;;;6.47;5.57;;;3.50;99.90;;;;;;5047321;28;20048;-76
2023/01/16 13:55:29;;;;;;;7.67;5.80;;;3.50;99.90;;;;;;5048187;28;20592;-76
2023/01/16 13:58:05;;;;;;;8.33;6.37;;;3.60;99.90;;;;;;5047768;28;20140;-82
2023/01/16 14:00:32;;;;;;;12.40;6.57;;;3.60;99.90;;;;;;5048778;28;20047;-75
2023/01/16 14:03:26;;;;;;;7.63;5.97;;;3.60;99.90;;;;;;5045348;28;20055;-78
2023/01/16 14:06:10;;;;;;;7.43;5.73;;;3.60;99.90;;;;;;5045416;28;20048;-78
2023/01/16 14:09:14;;;;;;;7.90;6.10;;;3.60;99.90;;;;;;5026920;28;20052;-79
2023/01/16 14:12:13;;;;;;;8.40;5.77;;;3.70;99.90;;;;;;5044102;28;20472;-78